Time;durP1;ratioP1;P1;durP2;ratioP2;P2;SDS_P1;SDS_P2;PMS_P1;PMS_P2;Temp;Humidity;BMP_temperature;BMP_pressure;BME280_temperature;BME280_humidity;BME280_pressure;Samples;Min_cycle;Max_cycle;Signal;HPM_P1;HPM_P2
2022/04/11 00:02:23;;;;;;;5.22;2.42;;;;;;;;;;6195472;28;20488;-76
2022/04/11 00:05:26;;;;;;;3.58;2.53;;;;;;;;;;6195607;28;20046;-76
2022/04/11 00:08:33;;;;;;;4.18;2.60;;;;;;;;;;6195072;28;20046;-77
2022/04/11 00:11:39;;;;;;;3.78;2.25;;;;;;;;;;6196441;28;20062;-77
2022/04/11 00:14:41;;;;;;;4.28;2.47;;;;;;;;;;6199515;28;20177;-79
2022/04/11 00:17:44;;;;;;;5.55;2.50;;;;;;;;;;6194033;28;20073;-80
2022/04/11 00:20:47;;;;;;;5.18;2.50;;;;;;;;;;6195952;28;20072;-80
2022/04/11 00:23:54;;;;;;;4.90;2.40;;;;;;;;;;6196067;28;20054;-80
2022/04/11 00:26:57;;;;;;;6.05;2.72;;;;;;;;;;6194977;28;20057;-79
2022/04/11 00:30:00;;;;;;;6.25;2.60;;;;;;;;;;6193652;28;20540;-78
2022/04/11 00:33:03;;;;;;;3.92;2.67;;;;;;;;;;6196656;28;20050;-79
2022/04/11 00:36:06;;;;;;;4.80;2.38;;;;;;;;;;6194318;28;20448;-79
2022/04/11 00:39:10;;;;;;;3.05;2.30;;;;;;;;;;6194334;28;20046;-78
2022/04/11 00:42:15;;;;;;;5.72;2.30;;;;;;;;;;6194142;28;20051;-78
2022/04/11 00:45:18;;;;;;;3.20;2.40;;;;;;;;;;6194370;28;20501;-78
2022/04/11 00:48:21;;;;;;;4.10;2.30;;;;;;;;;;6194262;28;20046;-78
2022/04/11 00:51:26;;;;;;;4.15;2.50;;;;;;;;;;6194704;28;20046;-78
2022/04/11 00:54:32;;;;;;;7.20;2.67;;;;;;;;;;6194009;28;20393;-78
2022/04/11 00:57:37;;;;;;;5.65;2.90;;;;;;;;;;6193508;28;20053;-77
2022/04/11 01:00:41;;;;;;;4.93;2.90;;;;;;;;;;6193936;28;20105;-78
2022/04/11 01:03:44;;;;;;;5.80;3.00;;;;;;;;;;6193765;28;20073;-78
2022/04/11 01:06:47;;;;;;;5.53;2.72;;;;;;;;;;6195347;28;20353;-77
2022/04/11 01:09:54;;;;;;;5.60;2.78;;;;;;;;;;6192351;28;20279;-80
2022/04/11 01:12:57;;;;;;;6.18;2.92;;;;;;;;;;6194130;28;20077;-80
2022/04/11 01:16:01;;;;;;;3.17;2.40;;;;;;;;;;6193666;28;20409;-78
2022/04/11 01:19:06;;;;;;;4.63;2.60;;;;;;;;;;6193531;28;20046;-76
2022/04/11 01:22:10;;;;;;;6.97;2.45;;;;;;;;;;6193392;28;20135;-77
2022/04/11 01:25:16;;;;;;;4.13;2.70;;;;;;;;;;6193304;28;20122;-76
2022/04/11 01:28:21;;;;;;;3.77;2.80;;;;;;;;;;6193177;28;20046;-76
2022/04/11 01:31:25;;;;;;;5.35;2.47;;;;;;;;;;6192120;28;20047;-75
2022/04/11 01:34:28;;;;;;;5.97;2.80;;;;;;;;;;6192010;28;20042;-77
2022/04/11 01:37:35;;;;;;;5.50;2.88;;;;;;;;;;6193010;28;20504;-77
2022/04/11 01:40:38;;;;;;;3.45;2.60;;;;;;;;;;6192107;28;20050;-77
2022/04/11 01:43:41;;;;;;;7.45;3.13;;;;;;;;;;6192062;28;20405;-77
2022/04/11 01:46:46;;;;;;;4.50;3.00;;;;;;;;;;6192913;28;20129;-78
2022/04/11 01:49:52;;;;;;;6.32;3.33;;;;;;;;;;6192823;28;20050;-76
2022/04/11 01:53:03;;;;;;;5.53;3.10;;;;;;;;;;6191781;28;20120;-76
2022/04/11 01:56:06;;;;;;;6.72;3.33;;;;;;;;;;6193797;28;20054;-76
2022/04/11 01:59:11;;;;;;;5.93;3.28;;;;;;;;;;6192759;28;20187;-76
2022/04/11 02:02:14;;;;;;;8.43;3.55;;;;;;;;;;6192026;28;20088;-77
2022/04/11 02:05:17;;;;;;;6.13;3.60;;;;;;;;;;6191948;28;20051;-78
2022/04/11 02:08:24;;;;;;;5.00;3.50;;;;;;;;;;6192703;28;20053;-77
2022/04/11 02:11:33;;;;;;;6.97;3.53;;;;;;;;;;6192256;28;20073;-76
2022/04/11 02:14:36;;;;;;;5.68;3.30;;;;;;;;;;6191322;28;20058;-77
2022/04/11 02:17:40;;;;;;;4.22;3.45;;;;;;;;;;6192181;28;20493;-76
2022/04/11 02:20:45;;;;;;;5.80;3.55;;;;;;;;;;6192546;28;20051;-78
2022/04/11 02:23:52;;;;;;;4.65;3.55;;;;;;;;;;6191488;28;20076;-76
2022/04/11 02:26:55;;;;;;;5.03;3.90;;;;;;;;;;6191645;28;20050;-79
2022/04/11 02:29:58;;;;;;;7.13;4.18;;;;;;;;;;6192560;28;20051;-76
2022/04/11 02:33:01;;;;;;;5.53;3.63;;;;;;;;;;6192149;28;20053;-77
2022/04/11 02:36:04;;;;;;;5.70;3.70;;;;;;;;;;6191157;28;20057;-76
2022/04/11 02:39:08;;;;;;;5.32;3.35;;;;;;;;;;6192018;28;20042;-78
2022/04/11 02:42:20;;;;;;;5.50;3.78;;;;;;;;;;6192415;28;20066;-80
2022/04/11 02:45:28;;;;;;;5.63;3.78;;;;;;;;;;6191638;28;20046;-79
2022/04/11 02:48:38;;;;;;;4.18;3.42;;;;;;;;;;6195447;28;20108;-78
2022/04/11 02:51:46;;;;;;;7.57;3.83;;;;;;;;;;6196811;28;20046;-80
2022/04/11 02:54:55;;;;;;;6.95;3.97;;;;;;;;;;6196548;28;20043;-79
2022/04/11 02:57:59;;;;;;;6.93;3.58;;;;;;;;;;6195482;28;20499;-80
2022/04/11 03:01:02;;;;;;;5.65;3.97;;;;;;;;;;6196259;28;20105;-77
2022/04/11 03:04:07;;;;;;;7.60;4.00;;;;;;;;;;6196679;28;20443;-80
2022/04/11 03:07:33;;;;;;;5.95;3.67;;;;;;;;;;6196039;28;20038;-78
2022/04/11 03:10:37;;;;;;;7.05;4.25;;;;;;;;;;6195114;28;20057;-79
2022/04/11 03:13:41;;;;;;;5.60;3.70;;;;;;;;;;6195756;28;20054;-80
2022/04/11 03:16:45;;;;;;;6.55;4.13;;;;;;;;;;6196160;28;20046;-77
2022/04/11 03:19:48;;;;;;;9.48;4.15;;;;;;;;;;6194975;28;20125;-77
2022/04/11 03:22:51;;;;;;;7.40;4.20;;;;;;;;;;6195979;28;20049;-75
2022/04/11 03:25:56;;;;;;;5.82;3.78;;;;;;;;;;6196024;28;20053;-77
2022/04/11 03:29:04;;;;;;;5.80;4.05;;;;;;;;;;6195452;28;20062;-79
2022/04/11 03:32:08;;;;;;;8.77;4.78;;;;;;;;;;6194671;28;20046;-77
2022/04/11 03:35:15;;;;;;;5.90;4.32;;;;;;;;;;6195539;28;20042;-77
2022/04/11 03:38:19;;;;;;;5.78;3.83;;;;;;;;;;6195317;28;20133;-78
2022/04/11 03:41:26;;;;;;;7.10;3.90;;;;;;;;;;6195776;28;20402;-79
2022/04/11 03:44:40;;;;;;;10.38;3.95;;;;;;;;;;6194950;28;20291;-80
2022/04/11 03:47:49;;;;;;;6.05;4.00;;;;;;;;;;6196830;28;20103;-81
2022/04/11 03:50:56;;;;;;;7.80;4.32;;;;;;;;;;6197019;28;20054;-77
2022/04/11 03:54:00;;;;;;;6.88;4.55;;;;;;;;;;6194782;28;20042;-78
2022/04/11 03:57:06;;;;;;;10.75;5.65;;;;;;;;;;6195229;28;20053;-77
2022/04/11 04:00:10;;;;;;;10.20;5.45;;;;;;;;;;6195483;28;20110;-78
2022/04/11 04:03:19;;;;;;;9.98;5.57;;;;;;;;;;6195588;28;20149;-77
2022/04/11 04:06:28;;;;;;;12.35;5.72;;;;;;;;;;6194361;28;20050;-79
2022/04/11 04:09:31;;;;;;;8.32;4.63;;;;;;;;;;6196452;28;20161;-76
2022/04/11 04:12:36;;;;;;;9.38;4.60;;;;;;;;;;6194636;28;20050;-77
2022/04/11 04:15:52;;;;;;;7.38;4.13;;;;;;;;;;6193790;28;20050;-78
2022/04/11 04:18:57;;;;;;;9.73;4.68;;;;;;;;;;6194428;28;20428;-80
2022/04/11 04:22:00;;;;;;;13.32;4.40;;;;;;;;;;6194663;28;20121;-81
2022/04/11 04:25:04;;;;;;;7.80;4.07;;;;;;;;;;6194059;28;20042;-80
2022/04/11 04:28:08;;;;;;;7.70;4.68;;;;;;;;;;6193715;28;20089;-77
2022/04/11 04:31:16;;;;;;;9.95;4.30;;;;;;;;;;6192835;28;20052;-79
2022/04/11 04:34:19;;;;;;;9.02;4.28;;;;;;;;;;6193018;28;20042;-79
2022/04/11 04:37:24;;;;;;;6.88;3.95;;;;;;;;;;6190593;28;20452;-79
2022/04/11 04:40:28;;;;;;;7.32;4.13;;;;;;;;;;6191290;28;20507;-80
2022/04/11 04:43:34;;;;;;;7.63;3.80;;;;;;;;;;6191955;28;20046;-79
2022/04/11 04:46:37;;;;;;;7.20;3.92;;;;;;;;;;6193162;28;20061;-79
2022/04/11 04:49:47;;;;;;;5.50;4.15;;;;;;;;;;6193422;28;20051;-79
2022/04/11 04:52:52;;;;;;;7.53;4.28;;;;;;;;;;6194093;28;20050;-79
2022/04/11 04:55:55;;;;;;;8.57;4.20;;;;;;;;;;6194926;28;20038;-79
2022/04/11 04:58:59;;;;;;;8.82;3.95;;;;;;;;;;6192652;28;20420;-79
2022/04/11 05:02:03;;;;;;;6.70;3.75;;;;;;;;;;6193879;28;20046;-80
2022/04/11 05:05:09;;;;;;;12.88;4.40;;;;;;;;;;6193976;28;20509;-79
2022/04/11 05:08:12;;;;;;;8.50;4.10;;;;;;;;;;6194269;28;20042;-80
2022/04/11 05:11:16;;;;;;;8.60;4.10;;;;;;;;;;6191785;28;20129;-79
2022/04/11 05:14:21;;;;;;;6.53;3.67;;;;;;;;;;6194691;28;20054;-79
2022/04/11 05:17:26;;;;;;;;;;;;;;;;;;6193576;28;20034;-79
2022/04/11 05:20:29;;;;;;;7.75;3.58;;;;;;;;;;6192200;28;19937;-78
2022/04/11 05:23:35;;;;;;;9.63;3.42;;;;;;;;;;6193302;28;20070;-79
2022/04/11 05:26:38;;;;;;;8.82;3.67;;;;;;;;;;6193096;28;20046;-79
2022/04/11 05:29:44;;;;;;;5.35;3.08;;;;;;;;;;6191986;28;20053;-78
2022/04/11 05:32:47;;;;;;;6.63;3.20;;;;;;;;;;6192661;28;20054;-80
2022/04/11 05:35:51;;;;;;;9.23;3.97;;;;;;;;;;6192871;28;20053;-78
2022/04/11 05:38:55;;;;;;;9.23;3.60;;;;;;;;;;6193128;28;20046;-79
2022/04/11 05:42:00;;;;;;;7.30;3.40;;;;;;;;;;6191394;28;20049;-80
2022/04/11 05:45:06;;;;;;;6.47;3.28;;;;;;;;;;6192336;28;20070;-80
2022/04/11 05:48:09;;;;;;;5.72;2.70;;;;;;;;;;6194103;28;20057;-79
2022/04/11 05:51:13;;;;;;;4.78;3.00;;;;;;;;;;6191425;28;20050;-79
2022/04/11 05:54:16;;;;;;;6.38;3.00;;;;;;;;;;6193348;28;20051;-79
2022/04/11 05:57:19;;;;;;;7.40;3.30;;;;;;;;;;6193780;28;20493;-78
2022/04/11 06:00:23;;;;;;;4.55;3.03;;;;;;;;;;6192655;28;20405;-79
2022/04/11 06:03:29;;;;;;;4.82;2.88;;;;;;;;;;6191824;28;20057;-79
2022/04/11 06:06:32;;;;;;;8.30;3.50;;;;;;;;;;6192501;28;20154;-79
2022/04/11 06:09:36;;;;;;;5.53;3.22;;;;;;;;;;6192063;28;20391;-80
2022/04/11 06:12:40;;;;;;;7.55;3.33;;;;;;;;;;6190861;28;20189;-80
2022/04/11 06:15:47;;;;;;;4.78;3.00;;;;;;;;;;6192140;28;20039;-79
2022/04/11 06:18:52;;;;;;;5.75;3.03;;;;;;;;;;6193403;28;20485;-80
2022/04/11 06:21:56;;;;;;;6.93;3.17;;;;;;;;;;6194276;28;20053;-78
2022/04/11 06:24:59;;;;;;;6.63;3.45;;;;;;;;;;6196488;28;20050;-80
2022/04/11 06:28:05;;;;;;;;;;;;;;;;;;6197966;28;20110;-78
2022/04/11 06:31:10;;;;;;;5.00;3.25;;;;;;;;;;6196330;28;20410;-79
2022/04/11 06:34:15;;;;;;;7.05;3.10;;;;;;;;;;6195504;28;20485;-77
2022/04/11 06:37:18;;;;;;;6.80;3.40;;;;;;;;;;6196469;28;20050;-80
2022/04/11 06:40:21;;;;;;;4.75;3.15;;;;;;;;;;6196950;28;20507;-80
2022/04/11 06:43:25;;;;;;;5.75;3.55;;;;;;;;;;6195443;28;20053;-81
2022/04/11 06:46:46;;;;;;;7.85;3.35;;;;;;;;;;6195817;28;20051;-80
2022/04/11 06:49:49;;;;;;;4.80;3.40;;;;;;;;;;6196794;28;20050;-80
2022/04/11 06:52:52;;;;;;;5.82;3.67;;;;;;;;;;6197527;28;20472;-80
2022/04/11 06:55:55;;;;;;;5.20;3.00;;;;;;;;;;6192474;28;20216;-79
2022/04/11 06:59:02;;;;;;;4.35;3.22;;;;;;;;;;6195397;28;20050;-79
2022/04/11 07:02:07;;;;;;;6.40;3.13;;;;;;;;;;6197178;28;20177;-81
2022/04/11 07:05:10;;;;;;;5.47;3.13;;;;;;;;;;6196825;28;20428;-81
2022/04/11 07:08:13;;;;;;;5.10;2.97;;;;;;;;;;6197149;28;20042;-81
2022/04/11 07:11:16;;;;;;;6.57;3.45;;;;;;;;;;6197482;28;20323;-81
2022/04/11 07:14:20;;;;;;;5.47;3.55;;;;;;;;;;6196492;28;20513;-81
2022/04/11 07:17:25;;;;;;;4.82;3.42;;;;;;;;;;6195984;28;20038;-80
2022/04/11 07:20:28;;;;;;;5.05;3.40;;;;;;;;;;6197651;28;20409;-80
2022/04/11 07:23:31;;;;;;;8.52;3.53;;;;;;;;;;6198090;28;20046;-80
2022/04/11 07:26:34;;;;;;;7.65;3.22;;;;;;;;;;6194760;28;20042;-79
2022/04/11 07:29:39;;;;;;;24.90;11.45;;;;;;;;;;6196566;28;20382;-80
2022/04/11 07:32:43;;;;;;;8.25;3.67;;;;;;;;;;6196483;28;20078;-81
2022/04/11 07:35:46;;;;;;;7.00;3.70;;;;;;;;;;6195079;28;20053;-78
2022/04/11 07:38:52;;;;;;;7.97;3.70;;;;;;;;;;6195230;28;20134;-81
2022/04/11 07:41:55;;;;;;;5.13;3.42;;;;;;;;;;6197009;28;20043;-80
2022/04/11 07:44:58;;;;;;;7.25;3.80;;;;;;;;;;6196507;28;20069;-80
2022/04/11 07:48:02;;;;;;;7.20;3.45;;;;;;;;;;6194478;28;20053;-81
2022/04/11 07:51:05;;;;;;;8.15;2.78;;;;;;;;;;6195491;28;20046;-82
2022/04/11 07:54:08;;;;;;;4.13;2.92;;;;;;;;;;6196798;28;20054;-82
2022/04/11 07:57:11;;;;;;;6.68;3.30;;;;;;;;;;6194252;28;20500;-81
2022/04/11 08:00:15;;;;;;;6.72;3.78;;;;;;;;;;6194611;28;20473;-81
2022/04/11 08:03:20;;;;;;;6.90;2.92;;;;;;;;;;6195282;28;20046;-80
2022/04/11 08:06:23;;;;;;;6.70;3.80;;;;;;;;;;6194697;28;20129;-81
2022/04/11 08:09:26;;;;;;;6.55;3.33;;;;;;;;;;6195283;28;20050;-80
2022/04/11 08:12:29;;;;;;;5.55;3.22;;;;;;;;;;6196052;28;20069;-81
2022/04/11 08:15:36;;;;;;;29.92;16.45;;;;;;;;;;6194861;28;20476;-80
2022/04/11 08:18:40;;;;;;;6.85;3.83;;;;;;;;;;6195050;28;20053;-79
2022/04/11 08:21:43;;;;;;;6.43;3.15;;;;;;;;;;6195156;28;20512;-78
2022/04/11 08:24:46;;;;;;;7.30;3.20;;;;;;;;;;6195494;28;20516;-78
2022/04/11 08:27:49;;;;;;;6.25;3.25;;;;;;;;;;6193794;28;20042;-79
2022/04/11 08:30:52;;;;;;;6.45;3.28;;;;;;;;;;6194817;28;20050;-83
2022/04/11 08:33:56;;;;;;;7.50;3.25;;;;;;;;;;6196079;28;20047;-81
2022/04/11 08:36:59;;;;;;;4.65;3.00;;;;;;;;;;6194138;28;20034;-81
2022/04/11 08:40:02;;;;;;;4.80;2.72;;;;;;;;;;6194487;28;20042;-80
2022/04/11 08:43:05;;;;;;;5.70;3.00;;;;;;;;;;6195350;28;20075;-80
2022/04/11 08:46:08;;;;;;;6.20;3.00;;;;;;;;;;6194153;28;20113;-79
2022/04/11 08:49:13;;;;;;;7.95;3.05;;;;;;;;;;6192919;28;20046;-79
2022/04/11 08:52:16;;;;;;;5.20;2.80;;;;;;;;;;6193278;28;20046;-80
2022/04/11 08:55:19;;;;;;;5.82;2.90;;;;;;;;;;6195139;28;20118;-80
2022/04/11 08:58:22;;;;;;;5.70;2.80;;;;;;;;;;6194573;28;20046;-80
2022/04/11 09:01:25;;;;;;;6.45;3.05;;;;;;;;;;6193807;28;20050;-81
2022/04/11 09:04:29;;;;;;;7.07;3.00;;;;;;;;;;6194149;28;20537;-81
2022/04/11 09:07:45;;;;;;;9.00;3.00;;;;;;;;;;6193919;28;20046;-78
2022/04/11 09:10:49;;;;;;;4.60;3.17;;;;;;;;;;6192624;28;20049;-80
2022/04/11 09:13:53;;;;;;;4.47;2.90;;;;;;;;;;6193943;28;20058;-79
2022/04/11 09:16:58;;;;;;;6.50;3.72;;;;;;;;;;6193856;28;20489;-80
2022/04/11 09:20:07;;;;;;;4.93;3.03;;;;;;;;;;6194169;28;20046;-79
2022/04/11 09:23:19;;;;;;;4.80;3.22;;;;;;;;;;6193337;28;20046;-81
2022/04/11 09:26:23;;;;;;;6.30;3.20;;;;;;;;;;6194355;28;20078;-80
2022/04/11 09:29:31;;;;;;;8.38;3.95;;;;;;;;;;6194634;28;20106;-79
2022/04/11 09:32:34;;;;;;;6.18;3.40;;;;;;;;;;6193872;28;20050;-80
2022/04/11 09:35:40;;;;;;;4.22;3.50;;;;;;;;;;6193315;28;20054;-79
2022/04/11 09:38:43;;;;;;;5.28;3.42;;;;;;;;;;6192732;28;20042;-79
2022/04/11 09:41:49;;;;;;;9.68;3.30;;;;;;;;;;6192783;28;20486;-80
2022/04/11 09:44:58;;;;;;;7.45;3.28;;;;;;;;;;6191628;28;20508;-78
2022/04/11 09:48:24;;;;;;;3.85;2.63;;;;;;;;;;6193782;28;20047;-78
2022/04/11 09:51:28;;;;;;;4.30;2.88;;;;;;;;;;6194095;28;20058;-78
2022/04/11 09:54:31;;;;;;;4.63;3.05;;;;;;;;;;6193336;28;20045;-76
2022/04/11 09:57:36;;;;;;;5.30;3.40;;;;;;;;;;6192179;28;20485;-78
2022/04/11 10:00:40;;;;;;;4.57;3.30;;;;;;;;;;6194293;28;20580;-78
2022/04/11 10:03:43;;;;;;;5.78;3.10;;;;;;;;;;6192324;28;20047;-76
2022/04/11 10:06:48;;;;;;;4.47;3.50;;;;;;;;;;6192455;28;20048;-78
2022/04/11 10:09:51;;;;;;;3.53;2.67;;;;;;;;;;6192137;28;20050;-78
2022/04/11 10:12:55;;;;;;;3.33;2.72;;;;;;;;;;6193286;28;20078;-79
2022/04/11 10:15:59;;;;;;;3.60;2.60;;;;;;;;;;6191660;28;20050;-80
2022/04/11 10:19:03;;;;;;;2.97;2.35;;;;;;;;;;6192689;28;20578;-80
2022/04/11 10:22:15;;;;;;;3.33;2.78;;;;;;;;;;6193777;28;20050;-79
2022/04/11 10:25:20;;;;;;;4.18;2.88;;;;;;;;;;6193323;28;20046;-79
2022/04/11 10:28:24;;;;;;;3.53;2.90;;;;;;;;;;6191833;28;20410;-78
2022/04/11 10:31:36;;;;;;;4.57;2.55;;;;;;;;;;6192997;28;20046;-80
2022/04/11 10:34:49;;;;;;;6.40;3.28;;;;;;;;;;6193374;28;20043;-77
2022/04/11 10:38:12;;;;;;;3.63;2.78;;;;;;;;;;6191475;28;20047;-79
2022/04/11 10:41:17;;;;;;;4.82;3.20;;;;;;;;;;6180319;28;20065;-77
2022/04/11 10:44:31;;;;;;;5.72;2.90;;;;;;;;;;6187759;28;20050;-78
2022/04/11 10:47:35;;;;;;;4.65;3.10;;;;;;;;;;6191075;28;20053;-77
2022/04/11 10:50:38;;;;;;;4.07;3.22;;;;;;;;;;6189010;28;20054;-80
2022/04/11 10:54:01;;;;;;;6.10;2.30;;;;;;;;;;6189696;28;20134;-80
2022/04/11 10:57:05;;;;;;;5.05;2.17;;;;;;;;;;6190406;28;20053;-81
2022/04/11 11:00:09;;;;;;;3.95;2.50;;;;;;;;;;6190378;28;20046;-84
2022/04/11 11:03:14;;;;;;;3.60;1.90;;;;;;;;;;6189207;28;20448;-78
2022/04/11 11:06:18;;;;;;;4.00;2.50;;;;;;;;;;6189057;28;20416;-78
2022/04/11 11:09:21;;;;;;;3.88;2.20;;;;;;;;;;6193173;28;20042;-80
2022/04/11 11:12:25;;;;;;;5.90;2.97;;;;;;;;;;6196639;28;20054;-79
2022/04/11 11:15:28;;;;;;;3.75;2.30;;;;;;;;;;6195706;28;20472;-76
2022/04/11 11:18:58;;;;;;;4.75;2.65;;;;;;;;;;6195319;28;20046;-78
2022/04/11 11:22:02;;;;;;;3.60;3.13;;;;;;;;;;6195819;28;20100;-79
2022/04/11 11:25:18;;;;;;;6.95;3.38;;;;;;;;;;6193701;28;20050;-79
2022/04/11 11:28:28;;;;;;;7.65;3.10;;;;;;;;;;6194376;28;20093;-81
2022/04/11 11:31:32;;;;;;;4.10;2.92;;;;;;;;;;6197340;28;20050;-78
2022/04/11 11:34:37;;;;;;;5.55;3.95;;;;;;;;;;6195344;28;20057;-81
2022/04/11 11:37:41;;;;;;;5.35;3.30;;;;;;;;;;6193936;28;20507;-79
2022/04/11 11:40:52;;;;;;;5.70;3.35;;;;;;;;;;6196431;28;20054;-81
2022/04/11 11:43:57;;;;;;;3.53;2.42;;;;;;;;;;6197640;28;20448;-85
2022/04/11 11:47:00;;;;;;;2.13;1.92;;;;;;;;;;6194206;28;20050;-75
2022/04/11 11:50:06;;;;;;;3.15;2.00;;;;;;;;;;6195366;28;20047;-79
2022/04/11 11:53:12;;;;;;;2.70;2.00;;;;;;;;;;6196685;28;20042;-74
2022/04/11 11:56:15;;;;;;;2.15;1.95;;;;;;;;;;6196041;28;20054;-75
2022/04/11 11:59:22;;;;;;;3.97;2.60;;;;;;;;;;6194982;28;20046;-74
2022/04/11 12:05:46;;;;;;;3.50;2.63;;;;;;;;;;6194792;28;20049;-75
2022/04/11 12:08:54;;;;;;;4.05;2.85;;;;;;;;;;6195557;28;20046;-75
2022/04/11 12:11:57;;;;;;;4.65;2.45;;;;;;;;;;6194345;28;20092;-75
2022/04/11 12:15:03;;;;;;;3.78;2.22;;;;;;;;;;6195853;28;20062;-76
2022/04/11 12:18:09;;;;;;;2.95;2.40;;;;;;;;;;6195293;28;20050;-74
2022/04/11 12:21:12;;;;;;;4.25;2.50;;;;;;;;;;6194254;28;20097;-75
2022/04/11 12:24:15;;;;;;;3.45;2.20;;;;;;;;;;6195274;28;20051;-75
2022/04/11 12:27:23;;;;;;;3.63;2.08;;;;;;;;;;6195697;28;20053;-75
2022/04/11 12:30:27;;;;;;;2.45;2.20;;;;;;;;;;6194886;28;20046;-74
2022/04/11 12:33:32;;;;;;;3.85;2.50;;;;;;;;;;6194229;28;20482;-74
2022/04/11 12:36:35;;;;;;;2.88;2.50;;;;;;;;;;6193726;28;20420;-74
2022/04/11 12:39:50;;;;;;;3.60;2.70;;;;;;;;;;6195152;28;20057;-75
2022/04/11 12:42:59;;;;;;;4.38;2.92;;;;;;;;;;6192797;28;20129;-76
2022/04/11 12:46:06;;;;;;;3.38;2.40;;;;;;;;;;6194172;28;20046;-75
2022/04/11 12:49:11;;;;;;;4.93;3.25;;;;;;;;;;6194900;28;20046;-76
2022/04/11 12:52:15;;;;;;;6.57;2.43;;;;;;;;;;6194767;28;20046;-74
2022/04/11 12:55:23;;;;;;;3.35;2.30;;;;;;;;;;6193207;28;20046;-75
2022/04/11 12:58:26;;;;;;;4.57;2.50;;;;;;;;;;6194849;28;20051;-75
2022/04/11 13:01:43;;;;;;;6.80;4.55;;;;;;;;;;6194525;28;20318;-76
2022/04/11 13:04:51;;;;;;;9.27;6.47;;;;;;;;;;6193151;28;20054;-76
2022/04/11 13:08:13;;;;;;;3.17;2.28;;;;;;;;;;6192823;28;20050;-77
2022/04/11 13:11:20;;;;;;;3.53;2.03;;;;;;;;;;6193223;28;20861;-75
2022/04/11 13:14:23;;;;;;;5.15;3.17;;;;;;;;;;6194599;28;20066;-76
2022/04/11 13:21:08;;;;;;;3.30;2.30;;;;;;;;;;6191362;28;20046;-77
2022/04/11 13:24:11;;;;;;;5.40;2.10;;;;;;;;;;6194193;28;20050;-77
2022/04/11 13:27:14;;;;;;;4.35;2.67;;;;;;;;;;6193974;28;20050;-76
2022/04/11 13:30:17;;;;;;;2.83;1.90;;;;;;;;;;6191821;28;20658;-74
2022/04/11 13:33:33;;;;;;;2.70;2.45;;;;;;;;;;6193515;28;20047;-75
2022/04/11 13:36:40;;;;;;;3.33;2.38;;;;;;;;;;6193692;28;20054;-74
2022/04/11 13:39:43;;;;;;;3.75;2.28;;;;;;;;;;6191934;28;20042;-73
2022/04/11 13:42:46;;;;;;;5.75;2.50;;;;;;;;;;6191081;28;20481;-76
2022/04/11 13:46:09;;;;;;;2.60;2.17;;;;;;;;;;6193772;28;20050;-75
2022/04/11 13:49:12;;;;;;;3.25;2.10;;;;;;;;;;6192604;28;20497;-74
2022/04/11 13:52:18;;;;;;;3.55;2.17;;;;;;;;;;6192339;28;20069;-74
2022/04/11 13:55:21;;;;;;;2.70;2.03;;;;;;;;;;6193005;28;20654;-74
2022/04/11 13:58:24;;;;;;;4.25;2.05;;;;;;;;;;6193662;28;20052;-75
2022/04/11 14:01:29;;;;;;;2.55;1.98;;;;;;;;;;6193143;28;20047;-76
2022/04/11 14:04:32;;;;;;;3.25;1.80;;;;;;;;;;6192059;28;20066;-75
2022/04/11 14:07:36;;;;;;;3.20;1.70;;;;;;;;;;6192089;28;20050;-76
2022/04/11 14:10:45;;;;;;;1.85;1.60;;;;;;;;;;6193542;28;20042;-75
2022/04/11 14:13:49;;;;;;;5.03;2.05;;;;;;;;;;6192583;28;20055;-75
2022/04/11 14:16:52;;;;;;;3.88;2.03;;;;;;;;;;6193970;28;20077;-75
2022/04/11 14:19:55;;;;;;;2.05;1.88;;;;;;;;;;6193349;28;20511;-75
2022/04/11 14:22:59;;;;;;;3.55;2.20;;;;;;;;;;6193300;28;20038;-74
2022/04/11 14:26:02;;;;;;;3.20;1.77;;;;;;;;;;6191016;28;20042;-74
2022/04/11 14:29:06;;;;;;;43.35;22.00;;;;;;;;;;6193204;28;20291;-74
2022/04/11 14:32:09;;;;;;;2.63;2.10;;;;;;;;;;6193404;28;20153;-74
2022/04/11 14:35:15;;;;;;;2.83;2.00;;;;;;;;;;6191844;28;20043;-75
2022/04/11 14:38:19;;;;;;;2.03;1.70;;;;;;;;;;6193023;28;20049;-74
2022/04/11 14:41:25;;;;;;;2.65;1.50;;;;;;;;;;6193783;28;20050;-74
2022/04/11 14:44:28;;;;;;;1.55;1.40;;;;;;;;;;6196897;28;20046;-74
2022/04/11 14:47:31;;;;;;;3.13;2.53;;;;;;;;;;6196685;28;20600;-74
2022/04/11 14:50:34;;;;;;;2.67;2.00;;;;;;;;;;6197631;28;20046;-76
2022/04/11 14:53:39;;;;;;;3.55;2.08;;;;;;;;;;6197355;28;20049;-75
2022/04/11 14:56:42;;;;;;;3.93;2.10;;;;;;;;;;6196205;28;20104;-75
2022/04/11 14:59:45;;;;;;;2.42;1.98;;;;;;;;;;6195702;28;20082;-74
2022/04/11 15:02:48;;;;;;;1.77;1.52;;;;;;;;;;6196333;28;20057;-75
2022/04/11 15:05:51;;;;;;;2.40;1.40;;;;;;;;;;6195720;28;20129;-75
2022/04/11 15:08:56;;;;;;;;;;;;;;;;;;6195798;28;20493;-75
2022/04/11 15:12:00;;;;;;;2.17;1.50;;;;;;;;;;6195897;28;19928;-75
2022/04/11 15:15:04;;;;;;;1.90;1.70;;;;;;;;;;6196657;28;20054;-75
2022/04/11 15:18:07;;;;;;;3.70;2.00;;;;;;;;;;6195849;28;20482;-75
2022/04/11 15:21:12;;;;;;;1.75;1.65;;;;;;;;;;6195735;28;20129;-75
2022/04/11 15:24:15;;;;;;;2.72;1.58;;;;;;;;;;6196917;28;20046;-75
2022/04/11 15:27:20;;;;;;;2.40;1.77;;;;;;;;;;6195901;28;20478;-76
2022/04/11 15:30:23;;;;;;;6.97;4.47;;;;;;;;;;6196195;28;20042;-75
2022/04/11 15:33:26;;;;;;;1.80;1.70;;;;;;;;;;6196485;28;20053;-75
2022/04/11 15:36:29;;;;;;;1.67;1.58;;;;;;;;;;6194282;28;20039;-75
2022/04/11 15:39:32;;;;;;;1.83;1.70;;;;;;;;;;6195595;28;20053;-75
2022/04/11 15:42:39;;;;;;;3.88;2.00;;;;;;;;;;6197023;28;20050;-75
2022/04/11 15:45:42;;;;;;;3.27;1.93;;;;;;;;;;6195636;28;20057;-74
2022/04/11 15:48:45;;;;;;;2.47;1.92;;;;;;;;;;6195957;28;20303;-73
2022/04/11 15:51:48;;;;;;;4.88;2.20;;;;;;;;;;6196467;28;20045;-74
2022/04/11 15:54:52;;;;;;;7.10;3.67;;;;;;;;;;6195932;28;20504;-76
2022/04/11 15:57:56;;;;;;;3.30;1.80;;;;;;;;;;6194882;28;20511;-77
2022/04/11 16:00:59;;;;;;;2.15;1.80;;;;;;;;;;6195495;28;20047;-77
2022/04/11 16:04:09;;;;;;;2.70;1.90;;;;;;;;;;6196402;28;20046;-77
2022/04/11 16:07:12;;;;;;;3.22;1.70;;;;;;;;;;6195979;28;20051;-78
2022/04/11 16:10:15;;;;;;;4.43;1.60;;;;;;;;;;6193545;28;20046;-77
2022/04/11 16:13:19;;;;;;;2.15;1.60;;;;;;;;;;6196038;28;20054;-77
2022/04/11 16:16:22;;;;;;;2.97;1.83;;;;;;;;;;6194834;28;20133;-79
2022/04/11 16:19:25;;;;;;;2.20;1.70;;;;;;;;;;6194818;28;20104;-77
2022/04/11 16:22:28;;;;;;;2.38;1.80;;;;;;;;;;6193605;28;20057;-79
2022/04/11 16:25:31;;;;;;;4.57;1.73;;;;;;;;;;6194793;28;20069;-80
2022/04/11 16:28:35;;;;;;;4.03;1.85;;;;;;;;;;6194808;28;20050;-81
2022/04/11 16:31:38;;;;;;;2.20;1.60;;;;;;;;;;6194727;28;20046;-78
2022/04/11 16:34:41;;;;;;;3.88;1.80;;;;;;;;;;6194633;28;20050;-82
2022/04/11 16:37:44;;;;;;;3.35;1.80;;;;;;;;;;6195607;28;20046;-80
2022/04/11 16:40:47;;;;;;;3.30;1.55;;;;;;;;;;6194495;28;20121;-80
2022/04/11 16:43:51;;;;;;;3.47;1.38;;;;;;;;;;6195173;28;20074;-82
2022/04/11 16:46:55;;;;;;;3.95;1.65;;;;;;;;;;6195928;28;20109;-80
2022/04/11 16:49:58;;;;;;;1.90;1.70;;;;;;;;;;6194645;28;20052;-80
2022/04/11 16:53:07;;;;;;;6.18;4.57;;;;;;;;;;6194370;28;20050;-82
2022/04/11 16:56:11;;;;;;;41.83;21.70;;;;;;;;;;6195411;28;20050;-80
2022/04/11 16:59:15;;;;;;;2.60;1.70;;;;;;;;;;6195361;28;20050;-81
2022/04/11 17:02:18;;;;;;;2.25;1.20;;;;;;;;;;6192719;28;20049;-83
2022/04/11 17:05:21;;;;;;;2.70;1.55;;;;;;;;;;6193772;28;20047;-81
2022/04/11 17:08:24;;;;;;;1.65;1.40;;;;;;;;;;6195074;28;20046;-78
2022/04/11 17:11:28;;;;;;;4.60;1.50;;;;;;;;;;6193816;28;20442;-79
2022/04/11 17:14:32;;;;;;;39.00;23.00;;;;;;;;;;6192376;28;20135;-79
2022/04/11 17:20:58;;;;;;;3.97;2.17;;;;;;;;;;6194509;28;20038;-78
2022/04/11 17:24:01;;;;;;;9.98;2.20;;;;;;;;;;6193436;28;20043;-78
2022/04/11 17:27:04;;;;;;;8.05;2.83;;;;;;;;;;6194058;28;20050;-78
2022/04/11 17:30:10;;;;;;;5.32;2.40;;;;;;;;;;6194458;28;20054;-77
2022/04/11 17:33:12;;;;;;;8.13;3.05;;;;;;;;;;6193530;28;20042;-80
2022/04/11 17:36:17;;;;;;;6.82;2.30;;;;;;;;;;6192760;28;20049;-80
2022/04/11 17:39:20;;;;;;;4.70;2.47;;;;;;;;;;6198247;28;20582;-78
2022/04/11 17:42:23;;;;;;;13.60;2.35;;;;;;;;;;6195290;28;20481;-79
2022/04/11 17:45:33;;;;;;;4.30;1.80;;;;;;;;;;6193462;28;20046;-84
2022/04/11 17:48:36;;;;;;;8.65;3.08;;;;;;;;;;6194287;28;20480;-83
2022/04/11 17:51:39;;;;;;;5.03;2.33;;;;;;;;;;6193396;28;20053;-86
2022/04/11 17:54:42;;;;;;;6.57;2.30;;;;;;;;;;6193668;28;20042;-86
2022/04/11 17:57:45;;;;;;;6.32;2.08;;;;;;;;;;6192316;28;20056;-85
2022/04/11 18:00:49;;;;;;;13.20;3.20;;;;;;;;;;6193021;28;20057;-78
2022/04/11 18:03:53;;;;;;;6.03;2.08;;;;;;;;;;6192622;28;20050;-82
2022/04/11 18:06:56;;;;;;;5.57;1.90;;;;;;;;;;6193920;28;20126;-86
2022/04/11 18:10:05;;;;;;;4.05;2.08;;;;;;;;;;6194831;28;20046;-86
2022/04/11 18:13:09;;;;;;;5.38;2.40;;;;;;;;;;6193773;28;20056;-87
2022/04/11 18:16:13;;;;;;;4.55;2.42;;;;;;;;;;6191967;28;20054;-81
2022/04/11 18:19:16;;;;;;;4.75;2.50;;;;;;;;;;6197356;28;20053;-79
2022/04/11 18:22:19;;;;;;;5.43;2.17;;;;;;;;;;6198012;28;20404;-80
2022/04/11 18:25:22;;;;;;;5.10;2.03;;;;;;;;;;6198039;28;20054;-78
2022/04/11 18:31:49;;;;;;;5.03;2.35;;;;;;;;;;6197297;28;20464;-84
2022/04/11 18:34:55;;;;;;;4.95;2.38;;;;;;;;;;6198505;28;20046;-78
2022/04/11 18:37:59;;;;;;;3.67;1.88;;;;;;;;;;6197458;28;20108;-81
2022/04/11 18:41:02;;;;;;;9.18;2.03;;;;;;;;;;6197658;28;20049;-81
2022/04/11 18:44:08;;;;;;;5.28;2.10;;;;;;;;;;6198260;28;20054;-85